createdAt,value
2018-02-13T00:00:28.379Z,95.87
2018-02-13T00:01:28.388Z,95.68
2018-02-13T00:02:28.206Z,96.06
2018-02-13T00:03:28.193Z,96.35
2018-02-13T00:04:28.089Z,96.35
2018-02-13T00:05:28.013Z,96.35
2018-02-13T00:06:27.868Z,96.54
2018-02-13T00:07:27.810Z,95.78
2018-02-13T00:08:27.695Z,95.87
2018-02-13T00:09:27.719Z,95.40
2018-02-13T00:10:27.522Z,95.21
2018-02-13T00:11:27.530Z,95.59
2018-02-13T00:12:27.354Z,95.12
2018-02-13T00:13:27.338Z,95.50
2018-02-13T00:14:27.181Z,94.27
2018-02-13T00:15:27.143Z,93.80
2018-02-13T00:16:27.010Z,93.61
2018-02-13T00:17:26.953Z,93.89
2018-02-13T00:18:26.840Z,94.37
2018-02-13T00:19:26.866Z,93.99
2018-02-13T00:20:26.666Z,93.89
2018-02-13T00:21:26.674Z,93.61
2018-02-13T00:22:26.501Z,93.70
2018-02-13T00:23:26.483Z,93.80
2018-02-13T00:24:26.328Z,93.23
2018-02-13T00:25:26.290Z,93.28
2018-02-13T00:26:26.158Z,93.56
2018-02-13T00:27:26.096Z,93.18
2018-02-13T00:28:25.980Z,93.66
2018-02-13T00:29:26.010Z,94.22
2018-02-13T00:30:25.815Z,95.17
2018-02-13T00:31:25.818Z,95.64
2018-02-13T00:32:25.648Z,95.64
2018-02-13T00:33:25.626Z,96.01
2018-02-13T00:34:25.503Z,96.01
2018-02-13T00:35:25.434Z,94.60
2018-02-13T00:36:25.302Z,93.94
2018-02-13T00:37:25.242Z,93.94
2018-02-13T00:38:25.132Z,92.43
2018-02-13T00:39:25.154Z,92.61
2018-02-13T00:40:24.959Z,93.47
2018-02-13T00:41:24.958Z,93.37
2018-02-13T00:42:24.787Z,93.18
2018-02-13T00:43:24.780Z,93.37
2018-02-13T00:44:24.622Z,93.56
2018-02-13T00:45:25.617Z,94.60
2018-02-13T00:46:24.449Z,94.98
2018-02-13T00:47:24.385Z,95.17
2018-02-13T00:48:24.276Z,95.73
2018-02-13T00:49:24.293Z,95.73
2018-02-13T00:50:24.106Z,95.36
2018-02-13T00:51:24.109Z,95.54
2018-02-13T00:52:23.934Z,93.56
2018-02-13T00:53:23.916Z,91.77
2018-02-13T00:54:23.762Z,92.14
2018-02-13T00:55:23.732Z,92.80
2018-02-13T00:56:23.593Z,92.90
2018-02-13T00:57:23.530Z,92.61
2018-02-13T00:58:23.423Z,91.67
2018-02-13T00:59:23.438Z,90.16
2018-02-13T01:00:23.271Z,89.88
2018-02-13T01:01:23.344Z,90.35
2018-02-13T01:02:23.088Z,91.30
2018-02-13T01:03:23.063Z,92.61
2018-02-13T01:04:22.905Z,92.71
2018-02-13T01:05:23.979Z,92.52
2018-02-13T01:06:22.759Z,92.14
2018-02-13T01:07:22.656Z,92.71
2018-02-13T01:08:22.562Z,92.24
2018-02-13T01:09:22.588Z,92.33
2018-02-13T01:10:22.393Z,92.29
2018-02-13T01:11:22.394Z,92.38
2018-02-13T01:12:22.220Z,92.61
2018-02-13T01:13:22.201Z,93.28
2018-02-13T01:14:22.050Z,93.94
2018-02-13T01:15:22.011Z,92.90
2018-02-13T01:16:21.877Z,92.61
2018-02-13T01:17:21.821Z,91.77
2018-02-13T01:18:21.709Z,92.00
2018-02-13T01:19:21.733Z,91.25
2018-02-13T01:20:21.535Z,89.08
2018-02-13T01:21:21.567Z,88.32
2018-02-13T01:22:21.368Z,87.48
2018-02-13T01:23:21.347Z,87.38
2018-02-13T01:24:21.193Z,87.38
2018-02-13T01:25:21.159Z,88.32
2018-02-13T01:26:21.018Z,87.38
2018-02-13T01:27:20.966Z,88.79
2018-02-13T01:28:20.847Z,89.74
2018-02-13T01:29:20.767Z,86.63
2018-02-13T01:30:20.780Z,84.74
2018-02-13T01:31:20.610Z,86.15
2018-02-13T01:32:21.616Z,86.34
2018-02-13T01:33:20.419Z,85.68
2018-02-13T01:34:20.395Z,87.00
2018-02-13T01:35:20.263Z,89.17
2018-02-13T01:36:20.214Z,90.68
2018-02-13T01:37:20.079Z,90.68
2018-02-13T01:38:20.011Z,90.87
2018-02-13T01:39:19.908Z,90.59
2018-02-13T01:40:19.924Z,90.87
2018-02-13T01:41:19.735Z,91.63
2018-02-13T01:42:19.730Z,92.00
2018-02-13T01:43:19.560Z,94.65
2018-02-13T01:44:19.538Z,95.59
2018-02-13T01:45:19.388Z,95.21
2018-02-13T01:46:19.350Z,94.93
2018-02-13T01:47:19.219Z,95.97
2018-02-13T01:48:19.823Z,96.81
2018-02-13T01:49:19.050Z,97.00
2018-02-13T01:50:19.068Z,96.15
2018-02-13T01:51:18.874Z,95.87
2018-02-13T01:52:18.875Z,95.87
2018-02-13T01:53:18.701Z,95.50
2018-02-13T01:54:18.623Z,95.59
2018-02-13T01:55:18.529Z,96.25
2018-02-13T01:56:18.492Z,96.81
2018-02-13T01:57:18.355Z,96.72
2018-02-13T01:58:18.298Z,97.10
2018-02-13T01:59:18.185Z,97.38
2018-02-13T02:00:18.211Z,97.19
2018-02-13T02:01:18.009Z,97.48
2018-02-13T02:02:17.986Z,96.25
2018-02-13T02:03:17.841Z,95.78
2018-02-13T02:04:17.827Z,96.34
2018-02-13T02:05:17.671Z,96.44
2018-02-13T02:06:17.635Z,95.97
2018-02-13T02:07:17.497Z,96.81
2018-02-13T02:08:17.444Z,97.85
2018-02-13T02:09:17.327Z,97.57
2018-02-13T02:10:17.357Z,97.57
2018-02-13T02:11:17.153Z,96.44
2018-02-13T02:12:17.165Z,95.68
2018-02-13T02:13:16.983Z,96.25
2018-02-13T02:14:16.973Z,96.72
2018-02-13T02:15:16.810Z,97.48
2018-02-13T02:16:16.781Z,97.00
2018-02-13T02:17:16.639Z,94.36
2018-02-13T02:18:16.559Z,93.23
2018-02-13T02:19:16.467Z,92.47
2018-02-13T02:20:16.395Z,91.16
2018-02-13T02:21:16.294Z,90.68
2018-02-13T02:22:16.306Z,90.68
2018-02-13T02:23:16.123Z,91.72
2018-02-13T02:24:16.115Z,92.57
2018-02-13T02:25:15.950Z,92.00
2018-02-13T02:26:15.923Z,90.78
2018-02-13T02:27:15.781Z,91.16
2018-02-13T02:28:15.732Z,91.72
2018-02-13T02:29:15.613Z,91.82
2018-02-13T02:30:15.545Z,92.00
2018-02-13T02:31:15.435Z,91.82
2018-02-13T02:32:15.451Z,88.51
2018-02-13T02:33:15.264Z,86.40
2018-02-13T02:34:15.260Z,86.96
2018-02-13T02:35:15.095Z,86.96
2018-02-13T02:36:15.071Z,87.62
2018-02-13T02:37:14.917Z,87.34
2018-02-13T02:38:14.876Z,88.47
2018-02-13T02:39:14.748Z,90.17
2018-02-13T02:40:14.688Z,91.30
2018-02-13T02:41:14.576Z,91.58
2018-02-13T02:42:14.595Z,92.52
2018-02-13T02:43:14.400Z,92.33
2018-02-13T02:44:14.400Z,91.58
2018-02-13T02:45:14.230Z,91.67
2018-02-13T02:46:14.212Z,91.67
2018-02-13T02:47:14.059Z,91.30
2018-02-13T02:48:14.020Z,91.77
2018-02-13T02:49:13.888Z,91.11
2018-02-13T02:50:13.833Z,88.56
2018-02-13T02:51:13.712Z,86.77
2018-02-13T02:52:13.739Z,86.87
2018-02-13T02:53:13.540Z,89.13
2018-02-13T02:54:13.550Z,90.17
2018-02-13T02:55:13.367Z,91.77
2018-02-13T02:56:13.354Z,91.49
2018-02-13T02:57:13.194Z,91.11
2018-02-13T02:58:13.168Z,89.22
2018-02-13T02:59:13.023Z,89.13
2018-02-13T03:00:12.972Z,89.13
2018-02-13T03:01:12.848Z,89.13
2018-02-13T03:02:12.782Z,86.58
2018-02-13T03:03:12.680Z,86.21
2018-02-13T03:04:12.692Z,87.71
2018-02-13T03:05:12.501Z,86.96
2018-02-13T03:06:12.500Z,84.88
2018-02-13T03:07:12.329Z,85.60
2018-02-13T03:08:12.308Z,84.75
2018-02-13T03:09:12.157Z,85.50
2018-02-13T03:10:12.116Z,87.67
2018-02-13T03:11:11.996Z,89.46
2018-02-13T03:12:11.924Z,91.06
2018-02-13T03:13:11.813Z,92.38
2018-02-13T03:14:11.833Z,92.66
2018-02-13T03:15:11.669Z,93.13
2018-02-13T03:16:11.564Z,92.00
2018-02-13T03:17:11.470Z,91.53
2018-02-13T03:18:11.451Z,91.35
2018-02-13T03:19:11.297Z,91.82
2018-02-13T03:20:11.260Z,90.97
2018-02-13T03:21:11.124Z,90.88
2018-02-13T03:22:11.066Z,91.82
2018-02-13T03:23:10.947Z,92.38
2018-02-13T03:24:10.981Z,92.47
2018-02-13T03:25:10.779Z,91.06
2018-02-13T03:26:10.788Z,90.12
2018-02-13T03:27:10.604Z,89.74
2018-02-13T03:28:10.598Z,88.14
2018-02-13T03:29:10.434Z,87.10
2018-02-13T03:30:10.405Z,85.78
2018-02-13T03:31:10.268Z,86.07
2018-02-13T03:32:10.211Z,87.48
2018-02-13T03:33:10.090Z,89.37
2018-02-13T03:34:10.020Z,89.56
2018-02-13T03:35:09.919Z,88.52
2018-02-13T03:36:09.935Z,88.23
2018-02-13T03:37:09.743Z,88.04
2018-02-13T03:38:09.739Z,89.56
2018-02-13T03:39:09.569Z,89.37
2018-02-13T03:40:09.544Z,88.99
2018-02-13T03:41:09.395Z,88.80
2018-02-13T03:42:09.353Z,88.52
2018-02-13T03:43:09.221Z,88.04
2018-02-13T03:44:09.166Z,88.33
2018-02-13T03:45:09.048Z,88.89
2018-02-13T03:46:09.999Z,88.80
2018-02-13T03:47:08.882Z,87.10
2018-02-13T03:48:14.415Z,87.48
2018-02-13T03:49:08.708Z,88.52
2018-02-13T03:50:08.695Z,88.71
2018-02-13T03:51:08.531Z,90.22
2018-02-13T03:52:08.506Z,92.00
2018-02-13T03:53:08.361Z,93.23
2018-02-13T03:54:08.311Z,93.51
2018-02-13T03:55:08.184Z,93.23
2018-02-13T03:56:08.120Z,92.19
2018-02-13T03:57:08.015Z,92.10
2018-02-13T03:58:08.034Z,90.59
2018-02-13T03:59:07.840Z,89.74
2018-02-13T04:00:07.837Z,89.56
2018-02-13T04:01:07.666Z,90.12
2018-02-13T04:02:07.644Z,90.59
2018-02-13T04:03:07.495Z,91.82
2018-02-13T04:04:07.456Z,91.06
2018-02-13T04:05:07.324Z,91.06
2018-02-13T04:06:07.261Z,92.00
2018-02-13T04:07:07.153Z,92.66
2018-02-13T04:08:07.174Z,93.04
2018-02-13T04:09:06.976Z,93.51
2018-02-13T04:10:06.980Z,93.51
2018-02-13T04:11:06.802Z,92.95
2018-02-13T04:12:06.791Z,92.29
2018-02-13T04:13:06.631Z,91.63
2018-02-13T04:14:06.594Z,90.97
2018-02-13T04:15:06.462Z,90.97
2018-02-13T04:16:06.414Z,91.44
2018-02-13T04:17:06.285Z,91.35
2018-02-13T04:18:06.315Z,90.03
2018-02-13T04:19:06.113Z,86.91
2018-02-13T04:20:06.122Z,85.60
2018-02-13T04:21:05.939Z,87.01
2018-02-13T04:22:05.933Z,88.14
2018-02-13T04:23:05.767Z,87.29
2018-02-13T04:24:05.743Z,85.97
2018-02-13T04:25:05.594Z,85.13
2018-02-13T04:26:05.547Z,85.13
2018-02-13T04:27:05.422Z,85.69
2018-02-13T04:28:05.359Z,85.88
2018-02-13T04:29:05.248Z,86.82
2018-02-13T04:30:05.266Z,87.67
2018-02-13T04:31:05.088Z,89.08
2018-02-13T04:32:05.077Z,88.80
2018-02-13T04:33:04.903Z,89.56
2018-02-13T04:34:04.884Z,89.84
2018-02-13T04:35:04.734Z,89.93
2018-02-13T04:36:04.692Z,91.72
2018-02-13T04:37:04.557Z,93.04
2018-02-13T04:38:04.501Z,94.93
2018-02-13T04:39:04.388Z,97.47
2018-02-13T04:40:04.411Z,97.85
2018-02-13T04:41:04.213Z,96.15
2018-02-13T04:42:04.220Z,95.21
2018-02-13T04:43:04.040Z,96.15
2018-02-13T04:44:04.032Z,96.25
2018-02-13T04:45:03.870Z,93.98
2018-02-13T04:46:03.836Z,92.76
2018-02-13T04:47:03.700Z,92.47
2018-02-13T04:48:03.643Z,92.66
2018-02-13T04:49:03.526Z,91.91
2018-02-13T04:50:03.452Z,91.72
2018-02-13T04:51:03.349Z,92.19
2018-02-13T04:52:03.365Z,92.19
2018-02-13T04:53:03.176Z,93.13
2018-02-13T04:54:03.169Z,93.70
2018-02-13T04:55:03.005Z,93.23
2018-02-13T04:56:02.987Z,90.88
2018-02-13T04:57:02.830Z,87.76
2018-02-13T04:58:02.787Z,85.97
2018-02-13T04:59:02.659Z,85.78
2018-02-13T05:00:03.621Z,86.16
2018-02-13T05:01:02.489Z,87.19
2018-02-13T05:02:02.510Z,88.61
2018-02-13T05:03:02.316Z,89.37
2018-02-13T05:04:02.323Z,89.65
2018-02-13T05:05:02.142Z,89.84
2018-02-13T05:06:02.123Z,90.73
2018-02-13T05:07:01.977Z,91.11
2018-02-13T05:08:01.935Z,91.49
2018-02-13T05:09:01.799Z,91.86
2018-02-13T05:10:01.741Z,91.49
2018-02-13T05:11:01.627Z,90.64
2018-02-13T05:12:01.720Z,90.73
2018-02-13T05:13:01.453Z,91.02
2018-02-13T05:14:01.461Z,91.11
2018-02-13T05:15:01.278Z,91.11
2018-02-13T05:16:01.268Z,90.92
2018-02-13T05:17:01.112Z,91.11
2018-02-13T05:18:01.081Z,91.20
2018-02-13T05:19:00.937Z,91.96
2018-02-13T05:20:00.884Z,91.63
2018-02-13T05:21:00.762Z,90.97
2018-02-13T05:22:01.718Z,90.31
2018-02-13T05:23:00.593Z,89.08
2018-02-13T05:24:00.609Z,86.63
2018-02-13T05:25:00.418Z,86.11
2018-02-13T05:26:00.412Z,86.11
2018-02-13T05:27:00.245Z,85.83
2018-02-13T05:28:00.217Z,85.46
2018-02-13T05:29:00.070Z,85.55
2018-02-13T05:30:00.026Z,86.68
2018-02-13T05:30:59.902Z,86.96
2018-02-13T05:31:59.837Z,88.28
2018-02-13T05:32:59.734Z,89.32
2018-02-13T05:33:59.751Z,90.92
2018-02-13T05:34:59.554Z,91.77
2018-02-13T05:35:59.557Z,93.09
2018-02-13T05:36:59.446Z,94.03
2018-02-13T05:37:59.363Z,94.60
2018-02-13T05:38:59.211Z,95.16
2018-02-13T05:39:59.172Z,95.07
2018-02-13T05:40:59.036Z,95.16
2018-02-13T05:41:58.980Z,95.40
2018-02-13T05:42:58.866Z,94.65
2018-02-13T05:43:58.896Z,94.65
2018-02-13T05:44:58.694Z,93.47
2018-02-13T05:45:58.698Z,93.23
2018-02-13T05:46:58.519Z,93.32
2018-02-13T05:47:58.508Z,92.90
2018-02-13T05:48:58.355Z,92.33
2018-02-13T05:49:58.315Z,92.47
2018-02-13T05:50:58.182Z,92.57
2018-02-13T05:51:58.125Z,91.77
2018-02-13T05:52:58.005Z,92.24
2018-02-13T05:53:57.934Z,92.43
2018-02-13T05:54:57.828Z,92.43
2018-02-13T05:55:57.845Z,92.29
2018-02-13T05:56:57.656Z,92.57
2018-02-13T05:57:57.653Z,93.04
2018-02-13T05:58:57.487Z,93.04
2018-02-13T05:59:57.463Z,93.51
2018-02-13T06:00:57.310Z,94.17
2018-02-13T06:01:57.273Z,95.31
2018-02-13T06:02:57.139Z,96.44
2018-02-13T06:03:57.077Z,97.00
2018-02-13T06:04:56.970Z,97.94
2018-02-13T06:05:56.992Z,97.85
2018-02-13T06:06:56.815Z,97.85
2018-02-13T06:07:56.797Z,98.04
2018-02-13T06:08:56.623Z,97.75
2018-02-13T06:09:56.605Z,97.66
2018-02-13T06:10:56.449Z,97.47
2018-02-13T06:11:56.412Z,98.51
2018-02-13T06:12:56.279Z,98.98
2018-02-13T06:13:56.221Z,98.89
2018-02-13T06:14:56.103Z,99.45
2018-02-13T06:15:56.130Z,99.36
2018-02-13T06:16:55.932Z,99.08
2018-02-13T06:17:55.942Z,98.79
2018-02-13T06:18:55.759Z,99.08
2018-02-13T06:19:55.748Z,98.51
2018-02-13T06:20:55.587Z,98.32
2018-02-13T06:21:55.561Z,98.41
2018-02-13T06:22:55.415Z,97.28
2018-02-13T06:23:55.364Z,96.53
2018-02-13T06:24:55.240Z,96.06
2018-02-13T06:25:55.280Z,95.40
2018-02-13T06:26:55.072Z,95.31
2018-02-13T06:27:55.085Z,94.74
2018-02-13T06:28:54.898Z,94.46
2018-02-13T06:29:54.893Z,94.65
2018-02-13T06:30:54.728Z,94.74
2018-02-13T06:31:54.700Z,95.31
2018-02-13T06:32:54.554Z,95.31
2018-02-13T06:33:54.513Z,95.21
2018-02-13T06:34:54.391Z,95.68
2018-02-13T06:35:54.315Z,95.50
2018-02-13T06:36:54.210Z,96.15
2018-02-13T06:37:54.246Z,96.34
2018-02-13T06:38:54.040Z,95.87
2018-02-13T06:39:54.038Z,96.34
2018-02-13T06:40:53.862Z,96.53
2018-02-13T06:41:53.845Z,96.72
2018-02-13T06:42:53.694Z,96.67
2018-02-13T06:43:53.654Z,97.00
2018-02-13T06:44:53.522Z,96.72
2018-02-13T06:45:53.459Z,96.91
2018-02-13T06:46:53.351Z,96.91
2018-02-13T06:47:53.370Z,96.95
2018-02-13T06:48:53.178Z,97.61
2018-02-13T06:49:53.182Z,97.33
2018-02-13T06:50:53.009Z,97.33
2018-02-13T06:51:52.990Z,97.24
2018-02-13T06:52:52.836Z,97.14
2018-02-13T06:53:52.801Z,97.71
2018-02-13T06:54:52.664Z,97.90
2018-02-13T06:55:52.606Z,97.90
2018-02-13T06:56:52.491Z,97.99
2018-02-13T06:57:52.408Z,98.09
2018-02-13T06:58:52.486Z,98.18
2018-02-13T06:59:52.233Z,97.24
2018-02-13T07:00:52.299Z,97.61
2018-02-13T07:01:52.063Z,97.80
2018-02-13T07:02:52.109Z,97.61
2018-02-13T07:03:51.889Z,97.52
2018-02-13T07:04:51.918Z,97.61
2018-02-13T07:05:51.720Z,97.71
2018-02-13T07:06:51.727Z,97.61
2018-02-13T07:07:51.549Z,96.77
2018-02-13T07:08:51.639Z,96.48
2018-02-13T07:09:51.379Z,96.01
2018-02-13T07:10:51.443Z,96.48
2018-02-13T07:11:51.206Z,96.20
2018-02-13T07:12:51.254Z,96.48
2018-02-13T07:13:51.039Z,97.05
2018-02-13T07:14:51.060Z,96.95
2018-02-13T07:15:50.864Z,96.67
2018-02-13T07:16:50.873Z,96.67
2018-02-13T07:17:50.699Z,96.95
2018-02-13T07:18:50.785Z,96.58
2018-02-13T07:19:50.521Z,96.86
2018-02-13T07:20:50.592Z,96.67
2018-02-13T07:21:50.369Z,96.58
2018-02-13T07:22:50.401Z,96.77
2018-02-13T07:23:50.181Z,96.67
2018-02-13T07:24:50.210Z,96.77
2018-02-13T07:25:50.007Z,96.95
2018-02-13T07:26:50.021Z,96.77
2018-02-13T07:27:49.841Z,96.58
2018-02-13T07:28:49.832Z,96.67
2018-02-13T07:29:49.666Z,96.77
2018-02-13T07:30:49.741Z,96.77
2018-02-13T07:31:49.494Z,96.67
2018-02-13T07:32:49.552Z,96.30
2018-02-13T07:33:49.330Z,95.92
2018-02-13T07:34:49.361Z,96.20
2018-02-13T07:35:49.157Z,95.26
2018-02-13T07:36:49.270Z,95.36
2018-02-13T07:37:48.989Z,95.26
2018-02-13T07:38:49.079Z,94.88
2018-02-13T07:39:48.818Z,94.60
2018-02-13T07:40:48.893Z,94.51
2018-02-13T07:41:48.644Z,94.13
2018-02-13T07:42:48.610Z,93.56
2018-02-13T07:43:48.473Z,93.47
2018-02-13T07:44:48.510Z,92.80
2018-02-13T07:45:48.313Z,92.61
2018-02-13T07:46:48.436Z,91.58
2018-02-13T07:47:48.131Z,91.20
2018-02-13T07:48:48.228Z,90.07
2018-02-13T07:49:47.965Z,89.22
2018-02-13T07:50:48.037Z,89.88
2018-02-13T07:51:47.792Z,90.73
2018-02-13T07:52:47.845Z,91.30
2018-02-13T07:53:47.619Z,90.92
2018-02-13T07:54:47.655Z,90.92
2018-02-13T07:55:47.454Z,90.64
2018-02-13T07:56:47.567Z,90.64
2018-02-13T07:57:47.282Z,91.20
2018-02-13T07:58:47.375Z,91.11
2018-02-13T07:59:47.110Z,90.64
2018-02-13T08:00:47.187Z,90.45
2018-02-13T08:01:46.940Z,89.60
2018-02-13T08:02:46.997Z,89.93
2018-02-13T08:03:46.768Z,90.40
2018-02-13T08:04:46.804Z,90.40
2018-02-13T08:05:46.598Z,90.87
2018-02-13T08:06:46.724Z,89.93
2018-02-13T08:07:46.440Z,89.74
2018-02-13T08:08:46.427Z,89.40
2018-02-13T08:09:46.262Z,89.50
2018-02-13T08:10:46.334Z,88.84
2018-02-13T08:11:46.089Z,89.12
2018-02-13T08:12:46.151Z,89.69
2018-02-13T08:13:45.924Z,88.70
2018-02-13T08:14:45.955Z,89.22
2018-02-13T08:15:45.750Z,88.37
2018-02-13T08:16:45.761Z,88.65
2018-02-13T08:17:45.582Z,88.75
2018-02-13T08:18:45.572Z,88.84
2018-02-13T08:19:45.409Z,89.22
2018-02-13T08:20:45.381Z,88.84
2018-02-13T08:21:45.252Z,88.84
2018-02-13T08:22:45.186Z,88.46
2018-02-13T08:23:45.068Z,89.12
2018-02-13T08:24:44.994Z,89.03
2018-02-13T08:25:45.105Z,88.75
2018-02-13T08:26:44.823Z,89.88
2018-02-13T08:27:49.522Z,91.01
2018-02-13T08:28:44.656Z,91.77
2018-02-13T08:29:46.776Z,92.43
2018-02-13T08:30:44.487Z,91.96
2018-02-13T08:31:46.479Z,91.77
2018-02-13T08:32:44.318Z,91.11
2018-02-13T08:33:44.443Z,91.01
2018-02-13T08:34:44.150Z,91.11
2018-02-13T08:35:44.253Z,91.25
2018-02-13T08:36:43.979Z,91.25
2018-02-13T08:37:44.064Z,91.06
2018-02-13T08:38:43.809Z,91.34
2018-02-13T08:39:43.918Z,90.68
2018-02-13T08:40:43.640Z,90.87
2018-02-13T08:41:43.780Z,90.35
2018-02-13T08:42:43.476Z,90.44
2018-02-13T08:43:43.588Z,89.97
2018-02-13T08:44:43.309Z,89.31
2018-02-13T08:45:43.400Z,89.07
2018-02-13T08:46:43.147Z,87.74
2018-02-13T08:47:43.211Z,86.90
2018-02-13T08:48:42.971Z,86.80
2018-02-13T08:49:43.119Z,86.61
2018-02-13T08:50:42.808Z,85.85
2018-02-13T08:51:42.823Z,85.52
2018-02-13T08:52:42.644Z,85.24
2018-02-13T08:53:42.631Z,84.58
2018-02-13T08:54:42.483Z,84.01
2018-02-13T08:55:42.469Z,83.44
2018-02-13T08:56:42.312Z,83.44
2018-02-13T08:57:42.458Z,82.78
2018-02-13T08:58:42.149Z,82.15
2018-02-13T08:59:42.268Z,81.30
2018-02-13T09:00:41.979Z,81.49
2018-02-13T09:01:42.074Z,81.87
2018-02-13T09:02:41.819Z,81.30
2018-02-13T09:03:41.886Z,81.49
2018-02-13T09:04:41.644Z,80.74
2018-02-13T09:05:41.694Z,80.36
2018-02-13T09:06:41.481Z,79.83
2018-02-13T09:07:41.507Z,79.17
2018-02-13T09:08:41.311Z,78.59
2018-02-13T09:09:41.314Z,78.31
2018-02-13T09:10:41.146Z,79.36
2018-02-13T09:11:41.117Z,78.50
2018-02-13T09:12:40.975Z,78.31
2018-02-13T09:13:40.933Z,78.13
2018-02-13T09:14:40.839Z,78.03
2018-02-13T09:15:40.845Z,78.13
2018-02-13T09:16:40.643Z,77.46
2018-02-13T09:17:40.652Z,77.69
2018-02-13T09:18:40.478Z,77.88
2018-02-13T09:19:40.464Z,78.26
2018-02-13T09:20:40.310Z,76.36
2018-02-13T09:21:40.269Z,75.98
2018-02-13T09:22:40.142Z,76.65
2018-02-13T09:23:40.186Z,76.93
2018-02-13T09:24:40.831Z,76.36
2018-02-13T09:25:39.991Z,76.74
2018-02-13T09:26:39.808Z,75.51
2018-02-13T09:27:39.798Z,75.42
2018-02-13T09:28:39.640Z,75.51
2018-02-13T09:29:39.557Z,75.60
2018-02-13T09:30:39.512Z,75.42
2018-02-13T09:31:39.393Z,75.32
2018-02-13T09:32:39.421Z,75.13
2018-02-13T09:33:39.228Z,75.04
2018-02-13T09:34:39.233Z,75.32
2018-02-13T09:35:39.061Z,75.51
2018-02-13T09:36:39.042Z,75.32
2018-02-13T09:37:38.898Z,75.23
2018-02-13T09:38:38.953Z,74.75
2018-02-13T09:39:38.729Z,74.69
2018-02-13T09:40:38.763Z,74.41
2018-02-13T09:41:38.565Z,73.94
2018-02-13T09:42:38.576Z,73.18
2018-02-13T09:43:38.400Z,72.99
2018-02-13T09:44:38.380Z,72.99
2018-02-13T09:45:38.233Z,73.14
2018-02-13T09:46:38.295Z,73.33
2018-02-13T09:47:38.070Z,73.52
2018-02-13T09:48:38.102Z,73.61
2018-02-13T09:49:37.906Z,73.90
2018-02-13T09:50:37.912Z,73.99
2018-02-13T09:51:37.741Z,74.85
2018-02-13T09:52:37.720Z,74.85
2018-02-13T09:53:37.578Z,75.13
2018-02-13T09:54:37.631Z,74.75
2018-02-13T09:55:37.415Z,75.26
2018-02-13T09:56:37.446Z,74.41
2018-02-13T09:57:37.247Z,74.69
2018-02-13T09:58:37.250Z,74.60
2018-02-13T09:59:37.082Z,74.60
2018-02-13T10:00:37.059Z,73.56
2018-02-13T10:01:36.917Z,73.18
2018-02-13T10:02:36.966Z,72.23
2018-02-13T10:03:36.757Z,72.52
2018-02-13T10:04:36.777Z,73.56
2018-02-13T10:05:36.595Z,73.94
2018-02-13T10:06:36.646Z,73.94
2018-02-13T10:07:36.427Z,73.84
2018-02-13T10:08:36.494Z,73.37
2018-02-13T10:09:36.265Z,72.71
2018-02-13T10:10:36.274Z,72.33
2018-02-13T10:11:36.104Z,71.85
2018-02-13T10:12:36.112Z,71.95
2018-02-13T10:13:35.939Z,72.99
2018-02-13T10:14:35.927Z,73.27
2018-02-13T10:15:35.775Z,74.03
2018-02-13T10:16:35.837Z,74.88
2018-02-13T10:17:35.611Z,75.07
2018-02-13T10:18:35.646Z,74.64
2018-02-13T10:19:35.447Z,74.64
2018-02-13T10:20:35.454Z,74.16
2018-02-13T10:21:35.289Z,72.84
2018-02-13T10:22:35.267Z,72.17
2018-02-13T10:23:35.126Z,72.36
2018-02-13T10:24:35.178Z,71.60
2018-02-13T10:25:34.960Z,71.51
2018-02-13T10:26:34.978Z,71.28
2018-02-13T10:27:34.804Z,71.66
2018-02-13T10:28:34.793Z,71.57
2018-02-13T10:29:34.636Z,71.38
2018-02-13T10:30:34.602Z,72.33
2018-02-13T10:31:34.472Z,72.04
2018-02-13T10:32:34.514Z,71.95
2018-02-13T10:33:34.312Z,72.61
2018-02-13T10:34:34.320Z,71.38
2018-02-13T10:35:34.146Z,71.09
2018-02-13T10:36:34.137Z,72.17
2018-02-13T10:37:33.984Z,71.85
2018-02-13T10:38:34.084Z,71.09
2018-02-13T10:39:33.821Z,71.66
2018-02-13T10:40:33.855Z,71.66
2018-02-13T10:41:33.664Z,71.85
2018-02-13T10:42:33.668Z,71.25
2018-02-13T10:43:33.499Z,71.53
2018-02-13T10:44:33.575Z,72.29
2018-02-13T10:45:33.338Z,72.57
2018-02-13T10:46:33.390Z,73.39
2018-02-13T10:47:33.180Z,73.96
2018-02-13T10:48:33.190Z,74.15
2018-02-13T10:49:33.011Z,73.86
2018-02-13T10:50:33.000Z,74.52
2018-02-13T10:51:32.848Z,75.57
2018-02-13T10:52:32.913Z,75.57
2018-02-13T10:53:32.683Z,75.09
2018-02-13T10:54:32.724Z,75.00
2018-02-13T10:55:32.521Z,74.43
2018-02-13T10:56:32.529Z,74.47
2018-02-13T10:57:32.355Z,75.23
2018-02-13T10:58:32.441Z,75.70
2018-02-13T10:59:32.193Z,76.27
2018-02-13T11:00:32.255Z,76.65
2018-02-13T11:01:32.030Z,76.36
2018-02-13T11:02:32.057Z,76.36
2018-02-13T11:03:31.866Z,76.46
2018-02-13T11:04:31.871Z,75.89
2018-02-13T11:05:31.698Z,75.89
2018-02-13T11:06:31.783Z,76.61
2018-02-13T11:07:31.537Z,76.89
2018-02-13T11:08:31.539Z,78.22
2018-02-13T11:09:31.374Z,78.13
2018-02-13T11:10:31.402Z,78.13
2018-02-13T11:11:31.213Z,78.88
2018-02-13T11:12:31.207Z,78.88
2018-02-13T11:13:31.049Z,79.36
2018-02-13T11:14:31.118Z,78.94
2018-02-13T11:15:30.882Z,79.26
2018-02-13T11:16:30.927Z,78.94
2018-02-13T11:17:30.717Z,79.88
2018-02-13T11:18:30.736Z,79.69
2018-02-13T11:19:30.550Z,79.50
2018-02-13T11:20:30.545Z,80.26
2018-02-13T11:21:30.388Z,80.64
2018-02-13T11:22:30.461Z,80.64
2018-02-13T11:23:30.223Z,80.55
2018-02-13T11:24:30.266Z,80.45
2018-02-13T11:25:30.063Z,81.12
2018-02-13T11:26:30.075Z,81.40
2018-02-13T11:27:29.892Z,80.83
2018-02-13T11:28:30.910Z,81.40
2018-02-13T11:29:29.736Z,81.40
2018-02-13T11:30:29.791Z,81.40
2018-02-13T11:31:29.558Z,81.30
2018-02-13T11:32:29.600Z,81.40
2018-02-13T11:33:29.395Z,81.77
2018-02-13T11:34:29.412Z,81.40
2018-02-13T11:35:29.235Z,80.17
2018-02-13T11:36:29.324Z,80.55
2018-02-13T11:37:29.066Z,79.69
2018-02-13T11:38:29.131Z,79.22
2018-02-13T11:39:28.900Z,78.46
2018-02-13T11:40:28.940Z,77.99
2018-02-13T11:41:28.737Z,79.03
2018-02-13T11:42:28.752Z,79.88
2018-02-13T11:43:28.562Z,79.88
2018-02-13T11:44:28.661Z,80.26
2018-02-13T11:45:28.400Z,80.74
2018-02-13T11:46:28.470Z,80.93
2018-02-13T11:47:28.232Z,80.17
2018-02-13T11:48:28.280Z,79.03
2018-02-13T11:49:28.071Z,78.85
2018-02-13T11:50:28.135Z,79.50
2018-02-13T11:51:27.903Z,79.79
2018-02-13T11:52:28.002Z,79.60
2018-02-13T11:53:27.737Z,79.60
2018-02-13T11:54:27.705Z,78.94
2018-02-13T11:55:27.569Z,78.75
2018-02-13T11:56:27.622Z,78.94
2018-02-13T11:57:27.405Z,79.13
2018-02-13T11:58:27.426Z,79.41
2018-02-13T11:59:27.233Z,80.55
2018-02-13T12:00:27.342Z,81.12
2018-02-13T12:01:27.070Z,81.68
2018-02-13T12:02:27.150Z,80.55
2018-02-13T12:03:26.904Z,79.50
2018-02-13T12:04:26.958Z,79.03
2018-02-13T12:05:26.737Z,78.65
2018-02-13T12:06:26.766Z,78.75
2018-02-13T12:07:26.570Z,78.59
2018-02-13T12:08:26.604Z,79.32
2018-02-13T12:09:26.405Z,78.94
2018-02-13T12:10:26.486Z,77.80
2018-02-13T12:11:26.238Z,77.42
2018-02-13T12:12:26.303Z,76.61
2018-02-13T12:13:26.073Z,77.14
2018-02-13T12:14:26.104Z,76.14
2018-02-13T12:15:25.905Z,76.14
2018-02-13T12:16:26.018Z,76.51
2018-02-13T12:17:25.742Z,76.51
2018-02-13T12:18:25.827Z,76.61
2018-02-13T12:19:25.572Z,76.61
2018-02-13T12:20:25.633Z,75.57
2018-02-13T12:21:25.407Z,74.90
2018-02-13T12:22:25.442Z,75.24
2018-02-13T12:23:25.241Z,74.77
2018-02-13T12:24:25.354Z,74.77
2018-02-13T12:25:25.080Z,74.02
2018-02-13T12:26:25.178Z,73.26
2018-02-13T12:27:24.919Z,74.21
2018-02-13T12:28:24.970Z,73.92
2018-02-13T12:29:24.743Z,73.64
2018-02-13T12:30:24.779Z,73.64
2018-02-13T12:31:24.574Z,74.68
2018-02-13T12:32:24.591Z,74.40
2018-02-13T12:33:24.409Z,74.30
2018-02-13T12:34:24.498Z,74.49
2018-02-13T12:35:24.245Z,73.68
2018-02-13T12:36:24.309Z,73.92
2018-02-13T12:37:24.080Z,73.64
2018-02-13T12:38:24.118Z,73.11
2018-02-13T12:39:23.914Z,71.93
2018-02-13T12:40:23.928Z,70.55
2018-02-13T12:41:23.747Z,69.28
2018-02-13T12:42:23.839Z,69.09
2018-02-13T12:43:23.576Z,68.81
2018-02-13T12:44:23.650Z,68.24
2018-02-13T12:45:23.421Z,69.09
2018-02-13T12:46:23.455Z,70.23
2018-02-13T12:47:23.287Z,71.27
2018-02-13T12:48:23.181Z,70.23
2018-02-13T12:49:23.080Z,69.57
2018-02-13T12:50:23.178Z,67.96
2018-02-13T12:51:22.915Z,67.86